sensor_id;sensor_type;location;lat;lon;timestamp;P1;durP1;ratioP1;P2;durP2;ratioP2
11319;SDS011;5715;48.234;14.320;2023-09-12T00:00:47;4.95;;;4.38;;
11319;SDS011;5715;48.234;14.320;2023-09-12T00:03:36;5.07;;;4.57;;
11319;SDS011;5715;48.234;14.320;2023-09-12T00:06:24;6.70;;;4.75;;
11319;SDS011;5715;48.234;14.320;2023-09-12T00:09:12;4.85;;;4.40;;
11319;SDS011;5715;48.234;14.320;2023-09-12T00:11:59;5.40;;;4.18;;
11319;SDS011;5715;48.234;14.320;2023-09-12T00:14:47;5.65;;;4.38;;
11319;SDS011;5715;48.234;14.320;2023-09-12T00:17:34;13.05;;;5.60;;
11319;SDS011;5715;48.234;14.320;2023-09-12T00:20:22;4.78;;;4.30;;
11319;SDS011;5715;48.234;14.320;2023-09-12T00:23:10;4.57;;;4.18;;
11319;SDS011;5715;48.234;14.320;2023-09-12T00:25:57;4.90;;;4.38;;
11319;SDS011;5715;48.234;14.320;2023-09-12T00:28:45;6.30;;;4.30;;
11319;SDS011;5715;48.234;14.320;2023-09-12T00:31:32;5.85;;;5.35;;
11319;SDS011;5715;48.234;14.320;2023-09-12T00:34:20;5.53;;;4.70;;
11319;SDS011;5715;48.234;14.320;2023-09-12T00:37:08;8.85;;;5.85;;
11319;SDS011;5715;48.234;14.320;2023-09-12T00:39:56;6.55;;;5.38;;
11319;SDS011;5715;48.234;14.320;2023-09-12T00:42:43;4.60;;;4.20;;
11319;SDS011;5715;48.234;14.320;2023-09-12T00:45:31;7.18;;;4.82;;
11319;SDS011;5715;48.234;14.320;2023-09-12T00:48:18;4.90;;;4.35;;
11319;SDS011;5715;48.234;14.320;2023-09-12T00:51:08;14.88;;;4.68;;
11319;SDS011;5715;48.234;14.320;2023-09-12T00:53:57;7.65;;;4.75;;
11319;SDS011;5715;48.234;14.320;2023-09-12T00:56:45;5.30;;;4.43;;
11319;SDS011;5715;48.234;14.320;2023-09-12T00:59:33;6.65;;;5.72;;
11319;SDS011;5715;48.234;14.320;2023-09-12T01:02:21;11.27;;;4.68;;
11319;SDS011;5715;48.234;14.320;2023-09-12T01:05:09;12.95;;;5.72;;
11319;SDS011;5715;48.234;14.320;2023-09-12T01:07:59;6.97;;;4.38;;
11319;SDS011;5715;48.234;14.320;2023-09-12T01:10:47;10.40;;;4.78;;
11319;SDS011;5715;48.234;14.320;2023-09-12T01:13:37;5.15;;;4.65;;
11319;SDS011;5715;48.234;14.320;2023-09-12T01:16:24;7.55;;;5.50;;
11319;SDS011;5715;48.234;14.320;2023-09-12T01:19:12;6.40;;;4.40;;
11319;SDS011;5715;48.234;14.320;2023-09-12T01:25:29;8.90;;;4.93;;
11319;SDS011;5715;48.234;14.320;2023-09-12T01:29:13;6.10;;;4.65;;
11319;SDS011;5715;48.234;14.320;2023-09-12T01:32:03;7.05;;;5.35;;
11319;SDS011;5715;48.234;14.320;2023-09-12T01:34:51;8.88;;;4.82;;
11319;SDS011;5715;48.234;14.320;2023-09-12T01:37:39;4.75;;;4.22;;
11319;SDS011;5715;48.234;14.320;2023-09-12T01:40:43;6.60;;;5.97;;
11319;SDS011;5715;48.234;14.320;2023-09-12T01:43:38;8.50;;;4.55;;
11319;SDS011;5715;48.234;14.320;2023-09-12T01:46:28;6.72;;;5.50;;
11319;SDS011;5715;48.234;14.320;2023-09-12T01:49:19;5.95;;;4.85;;
11319;SDS011;5715;48.234;14.320;2023-09-12T01:52:12;5.90;;;5.03;;
11319;SDS011;5715;48.234;14.320;2023-09-12T01:55:01;6.03;;;4.78;;
11319;SDS011;5715;48.234;14.320;2023-09-12T01:57:50;7.72;;;5.75;;
11319;SDS011;5715;48.234;14.320;2023-09-12T02:00:38;5.00;;;4.50;;
11319;SDS011;5715;48.234;14.320;2023-09-12T02:03:27;5.53;;;4.90;;
11319;SDS011;5715;48.234;14.320;2023-09-12T02:06:15;6.72;;;5.28;;
11319;SDS011;5715;48.234;14.320;2023-09-12T02:09:02;11.07;;;5.35;;
11319;SDS011;5715;48.234;14.320;2023-09-12T02:11:51;10.65;;;5.53;;
11319;SDS011;5715;48.234;14.320;2023-09-12T02:14:38;6.07;;;5.30;;
11319;SDS011;5715;48.234;14.320;2023-09-12T02:17:26;7.40;;;6.05;;
11319;SDS011;5715;48.234;14.320;2023-09-12T02:20:14;7.57;;;5.88;;
11319;SDS011;5715;48.234;14.320;2023-09-12T02:23:01;7.00;;;5.70;;
11319;SDS011;5715;48.234;14.320;2023-09-12T02:25:49;5.57;;;4.95;;
11319;SDS011;5715;48.234;14.320;2023-09-12T02:28:36;6.05;;;5.30;;
11319;SDS011;5715;48.234;14.320;2023-09-12T02:31:24;6.05;;;4.72;;
11319;SDS011;5715;48.234;14.320;2023-09-12T02:34:11;6.15;;;4.78;;
11319;SDS011;5715;48.234;14.320;2023-09-12T02:36:59;6.90;;;6.20;;
11319;SDS011;5715;48.234;14.320;2023-09-12T02:39:47;7.30;;;5.47;;
11319;SDS011;5715;48.234;14.320;2023-09-12T02:42:35;8.55;;;6.10;;
11319;SDS011;5715;48.234;14.320;2023-09-12T02:45:22;6.15;;;4.82;;
11319;SDS011;5715;48.234;14.320;2023-09-12T02:48:10;5.97;;;4.88;;
11319;SDS011;5715;48.234;14.320;2023-09-12T02:50:57;6.28;;;5.55;;
11319;SDS011;5715;48.234;14.320;2023-09-12T02:53:45;6.72;;;5.82;;
11319;SDS011;5715;48.234;14.320;2023-09-12T02:56:33;5.97;;;5.38;;
11319;SDS011;5715;48.234;14.320;2023-09-12T02:59:20;7.80;;;4.75;;
11319;SDS011;5715;48.234;14.320;2023-09-12T03:02:08;6.72;;;5.95;;
11319;SDS011;5715;48.234;14.320;2023-09-12T03:04:56;5.97;;;4.78;;
11319;SDS011;5715;48.234;14.320;2023-09-12T03:07:43;5.88;;;4.63;;
11319;SDS011;5715;48.234;14.320;2023-09-12T03:10:31;6.90;;;4.68;;
11319;SDS011;5715;48.234;14.320;2023-09-12T03:13:18;8.15;;;5.47;;
11319;SDS011;5715;48.234;14.320;2023-09-12T03:16:12;10.15;;;5.80;;
11319;SDS011;5715;48.234;14.320;2023-09-12T03:19:01;6.15;;;5.22;;
11319;SDS011;5715;48.234;14.320;2023-09-12T03:21:49;5.95;;;5.45;;
11319;SDS011;5715;48.234;14.320;2023-09-12T03:24:37;10.65;;;7.70;;
11319;SDS011;5715;48.234;14.320;2023-09-12T03:27:24;6.00;;;4.88;;
11319;SDS011;5715;48.234;14.320;2023-09-12T03:30:12;9.10;;;4.90;;
11319;SDS011;5715;48.234;14.320;2023-09-12T03:33:00;6.65;;;5.07;;
11319;SDS011;5715;48.234;14.320;2023-09-12T03:35:47;9.02;;;5.57;;
11319;SDS011;5715;48.234;14.320;2023-09-12T03:38:35;6.25;;;5.65;;
11319;SDS011;5715;48.234;14.320;2023-09-12T03:41:22;6.78;;;5.60;;
11319;SDS011;5715;48.234;14.320;2023-09-12T03:44:12;7.00;;;6.30;;
11319;SDS011;5715;48.234;14.320;2023-09-12T03:46:59;8.00;;;5.28;;
11319;SDS011;5715;48.234;14.320;2023-09-12T03:49:47;7.07;;;4.97;;
11319;SDS011;5715;48.234;14.320;2023-09-12T03:52:34;9.55;;;6.28;;
11319;SDS011;5715;48.234;14.320;2023-09-12T03:55:22;6.38;;;5.25;;
11319;SDS011;5715;48.234;14.320;2023-09-12T03:58:10;6.95;;;6.20;;
11319;SDS011;5715;48.234;14.320;2023-09-12T04:00:57;5.80;;;5.20;;
11319;SDS011;5715;48.234;14.320;2023-09-12T04:03:45;7.30;;;6.10;;
11319;SDS011;5715;48.234;14.320;2023-09-12T04:06:34;5.68;;;4.80;;
11319;SDS011;5715;48.234;14.320;2023-09-12T04:09:22;10.93;;;4.63;;
11319;SDS011;5715;48.234;14.320;2023-09-12T04:12:10;7.68;;;5.70;;
11319;SDS011;5715;48.234;14.320;2023-09-12T04:14:57;5.90;;;4.95;;
11319;SDS011;5715;48.234;14.320;2023-09-12T04:17:45;5.88;;;4.97;;
11319;SDS011;5715;48.234;14.320;2023-09-12T04:20:33;5.18;;;4.28;;
11319;SDS011;5715;48.234;14.320;2023-09-12T04:23:21;5.88;;;5.10;;
11319;SDS011;5715;48.234;14.320;2023-09-12T04:26:08;7.40;;;5.55;;
11319;SDS011;5715;48.234;14.320;2023-09-12T04:28:56;6.75;;;5.57;;
11319;SDS011;5715;48.234;14.320;2023-09-12T04:31:43;6.82;;;4.68;;
11319;SDS011;5715;48.234;14.320;2023-09-12T04:34:31;5.10;;;4.60;;
11319;SDS011;5715;48.234;14.320;2023-09-12T04:37:18;5.97;;;5.32;;
11319;SDS011;5715;48.234;14.320;2023-09-12T04:40:06;5.88;;;5.25;;
11319;SDS011;5715;48.234;14.320;2023-09-12T04:42:55;8.00;;;5.75;;
11319;SDS011;5715;48.234;14.320;2023-09-12T04:45:42;7.15;;;6.03;;
11319;SDS011;5715;48.234;14.320;2023-09-12T04:48:30;12.57;;;6.38;;
11319;SDS011;5715;48.234;14.320;2023-09-12T04:51:18;7.05;;;5.70;;
11319;SDS011;5715;48.234;14.320;2023-09-12T04:54:05;14.60;;;5.68;;
11319;SDS011;5715;48.234;14.320;2023-09-12T04:56:53;5.75;;;4.70;;
11319;SDS011;5715;48.234;14.320;2023-09-12T04:59:40;10.32;;;6.03;;
11319;SDS011;5715;48.234;14.320;2023-09-12T05:02:28;5.38;;;4.93;;
11319;SDS011;5715;48.234;14.320;2023-09-12T05:05:16;6.95;;;5.50;;
11319;SDS011;5715;48.234;14.320;2023-09-12T05:08:03;11.68;;;6.80;;
11319;SDS011;5715;48.234;14.320;2023-09-12T05:10:51;7.30;;;6.00;;
11319;SDS011;5715;48.234;14.320;2023-09-12T05:13:40;8.30;;;6.18;;
11319;SDS011;5715;48.234;14.320;2023-09-12T05:16:28;6.97;;;5.45;;
11319;SDS011;5715;48.234;14.320;2023-09-12T05:19:16;8.25;;;6.07;;
11319;SDS011;5715;48.234;14.320;2023-09-12T05:22:03;8.90;;;5.68;;
11319;SDS011;5715;48.234;14.320;2023-09-12T05:24:51;6.63;;;5.95;;
11319;SDS011;5715;48.234;14.320;2023-09-12T05:27:38;5.93;;;5.32;;
11319;SDS011;5715;48.234;14.320;2023-09-12T05:30:26;6.60;;;5.97;;
11319;SDS011;5715;48.234;14.320;2023-09-12T05:33:14;9.07;;;6.55;;
11319;SDS011;5715;48.234;14.320;2023-09-12T05:36:01;13.00;;;6.20;;
11319;SDS011;5715;48.234;14.320;2023-09-12T05:38:49;7.35;;;5.82;;
11319;SDS011;5715;48.234;14.320;2023-09-12T05:41:37;9.45;;;6.53;;
11319;SDS011;5715;48.234;14.320;2023-09-12T05:44:24;9.70;;;7.60;;
11319;SDS011;5715;48.234;14.320;2023-09-12T05:47:12;10.25;;;7.22;;
11319;SDS011;5715;48.234;14.320;2023-09-12T05:49:59;8.27;;;7.15;;
11319;SDS011;5715;48.234;14.320;2023-09-12T05:52:47;8.85;;;6.65;;
11319;SDS011;5715;48.234;14.320;2023-09-12T05:55:35;11.73;;;8.00;;
11319;SDS011;5715;48.234;14.320;2023-09-12T05:58:22;7.63;;;6.55;;
11319;SDS011;5715;48.234;14.320;2023-09-12T06:01:10;10.23;;;7.18;;
11319;SDS011;5715;48.234;14.320;2023-09-12T06:03:57;7.50;;;5.97;;
11319;SDS011;5715;48.234;14.320;2023-09-12T06:06:46;10.32;;;8.23;;
11319;SDS011;5715;48.234;14.320;2023-09-12T06:09:34;8.55;;;7.00;;
11319;SDS011;5715;48.234;14.320;2023-09-12T06:12:21;9.55;;;7.50;;
11319;SDS011;5715;48.234;14.320;2023-09-12T06:15:10;9.13;;;7.50;;
11319;SDS011;5715;48.234;14.320;2023-09-12T06:17:58;12.20;;;9.55;;
11319;SDS011;5715;48.234;14.320;2023-09-12T06:20:45;8.40;;;7.57;;
11319;SDS011;5715;48.234;14.320;2023-09-12T06:23:33;9.57;;;7.97;;
11319;SDS011;5715;48.234;14.320;2023-09-12T06:26:21;10.93;;;8.65;;
11319;SDS011;5715;48.234;14.320;2023-09-12T06:29:09;11.88;;;8.43;;
11319;SDS011;5715;48.234;14.320;2023-09-12T06:31:57;12.77;;;8.48;;
11319;SDS011;5715;48.234;14.320;2023-09-12T06:34:45;11.73;;;9.57;;
11319;SDS011;5715;48.234;14.320;2023-09-12T06:37:33;9.40;;;8.48;;
11319;SDS011;5715;48.234;14.320;2023-09-12T06:40:20;8.25;;;6.90;;
11319;SDS011;5715;48.234;14.320;2023-09-12T06:43:08;15.40;;;8.90;;
11319;SDS011;5715;48.234;14.320;2023-09-12T06:45:56;9.25;;;8.13;;
11319;SDS011;5715;48.234;14.320;2023-09-12T06:48:43;9.50;;;8.18;;
11319;SDS011;5715;48.234;14.320;2023-09-12T06:51:32;11.35;;;8.80;;
11319;SDS011;5715;48.234;14.320;2023-09-12T06:54:24;10.98;;;9.13;;
11319;SDS011;5715;48.234;14.320;2023-09-12T06:57:12;14.60;;;8.57;;
11319;SDS011;5715;48.234;14.320;2023-09-12T07:00:00;9.73;;;8.55;;
11319;SDS011;5715;48.234;14.320;2023-09-12T07:02:48;10.38;;;8.18;;
11319;SDS011;5715;48.234;14.320;2023-09-12T07:05:36;9.82;;;8.82;;
11319;SDS011;5715;48.234;14.320;2023-09-12T07:08:25;8.55;;;7.65;;
11319;SDS011;5715;48.234;14.320;2023-09-12T07:11:15;8.95;;;7.97;;
11319;SDS011;5715;48.234;14.320;2023-09-12T07:14:03;9.07;;;7.95;;
11319;SDS011;5715;48.234;14.320;2023-09-12T07:16:50;17.13;;;8.73;;
11319;SDS011;5715;48.234;14.320;2023-09-12T07:19:38;10.75;;;7.93;;
11319;SDS011;5715;48.234;14.320;2023-09-12T07:22:28;9.68;;;8.65;;
11319;SDS011;5715;48.234;14.320;2023-09-12T07:25:15;12.55;;;8.55;;
11319;SDS011;5715;48.234;14.320;2023-09-12T07:28:05;10.13;;;8.88;;
11319;SDS011;5715;48.234;14.320;2023-09-12T07:30:54;8.80;;;7.85;;
11319;SDS011;5715;48.234;14.320;2023-09-12T07:33:42;10.93;;;8.75;;
11319;SDS011;5715;48.234;14.320;2023-09-12T07:36:30;10.35;;;8.80;;
11319;SDS011;5715;48.234;14.320;2023-09-12T07:39:18;10.32;;;7.40;;
11319;SDS011;5715;48.234;14.320;2023-09-12T07:42:05;12.88;;;8.25;;
11319;SDS011;5715;48.234;14.320;2023-09-12T07:44:53;11.80;;;7.25;;
11319;SDS011;5715;48.234;14.320;2023-09-12T07:47:41;11.95;;;7.22;;
11319;SDS011;5715;48.234;14.320;2023-09-12T07:50:29;10.95;;;8.02;;
11319;SDS011;5715;48.234;14.320;2023-09-12T07:53:16;10.35;;;7.65;;
11319;SDS011;5715;48.234;14.320;2023-09-12T07:56:04;10.18;;;8.80;;
11319;SDS011;5715;48.234;14.320;2023-09-12T07:58:54;11.35;;;7.72;;
11319;SDS011;5715;48.234;14.320;2023-09-12T08:01:44;10.20;;;7.60;;
11319;SDS011;5715;48.234;14.320;2023-09-12T08:04:32;14.77;;;8.85;;
11319;SDS011;5715;48.234;14.320;2023-09-12T08:07:20;14.25;;;8.90;;
11319;SDS011;5715;48.234;14.320;2023-09-12T08:10:08;12.25;;;9.27;;
11319;SDS011;5715;48.234;14.320;2023-09-12T08:12:56;12.85;;;9.02;;
11319;SDS011;5715;48.234;14.320;2023-09-12T08:15:43;12.75;;;8.98;;
11319;SDS011;5715;48.234;14.320;2023-09-12T08:18:31;10.43;;;9.27;;
11319;SDS011;5715;48.234;14.320;2023-09-12T08:21:19;9.93;;;7.78;;
11319;SDS011;5715;48.234;14.320;2023-09-12T08:24:06;10.75;;;8.63;;
11319;SDS011;5715;48.234;14.320;2023-09-12T08:26:54;10.10;;;8.82;;
11319;SDS011;5715;48.234;14.320;2023-09-12T08:29:41;10.98;;;9.60;;
11319;SDS011;5715;48.234;14.320;2023-09-12T08:32:31;13.48;;;8.70;;
11319;SDS011;5715;48.234;14.320;2023-09-12T08:35:18;12.45;;;9.40;;
11319;SDS011;5715;48.234;14.320;2023-09-12T08:38:06;11.02;;;9.15;;
11319;SDS011;5715;48.234;14.320;2023-09-12T08:40:55;10.50;;;8.93;;
11319;SDS011;5715;48.234;14.320;2023-09-12T08:43:43;18.30;;;8.13;;
11319;SDS011;5715;48.234;14.320;2023-09-12T08:46:32;10.13;;;8.05;;
11319;SDS011;5715;48.234;14.320;2023-09-12T08:49:19;12.00;;;7.82;;
11319;SDS011;5715;48.234;14.320;2023-09-12T08:52:07;44.25;;;11.75;;
11319;SDS011;5715;48.234;14.320;2023-09-12T08:54:55;15.30;;;8.30;;
11319;SDS011;5715;48.234;14.320;2023-09-12T08:57:43;11.32;;;8.02;;
11319;SDS011;5715;48.234;14.320;2023-09-12T09:00:36;11.57;;;8.65;;
11319;SDS011;5715;48.234;14.320;2023-09-12T09:03:24;9.00;;;7.25;;
11319;SDS011;5715;48.234;14.320;2023-09-12T09:06:14;9.23;;;7.63;;
11319;SDS011;5715;48.234;14.320;2023-09-12T09:09:06;9.13;;;7.95;;
11319;SDS011;5715;48.234;14.320;2023-09-12T09:11:55;12.57;;;7.45;;
11319;SDS011;5715;48.234;14.320;2023-09-12T09:14:43;15.50;;;8.45;;
11319;SDS011;5715;48.234;14.320;2023-09-12T09:17:30;8.32;;;7.43;;
11319;SDS011;5715;48.234;14.320;2023-09-12T09:20:25;9.10;;;7.70;;
11319;SDS011;5715;48.234;14.320;2023-09-12T09:23:16;8.80;;;7.57;;
11319;SDS011;5715;48.234;14.320;2023-09-12T09:26:04;12.00;;;8.63;;
11319;SDS011;5715;48.234;14.320;2023-09-12T09:29:06;14.75;;;7.07;;
11319;SDS011;5715;48.234;14.320;2023-09-12T09:32:04;10.60;;;7.50;;
11319;SDS011;5715;48.234;14.320;2023-09-12T09:35:09;14.48;;;7.55;;
11319;SDS011;5715;48.234;14.320;2023-09-12T09:37:57;11.35;;;8.20;;
11319;SDS011;5715;48.234;14.320;2023-09-12T09:40:45;12.57;;;8.60;;
11319;SDS011;5715;48.234;14.320;2023-09-12T09:43:33;10.30;;;8.32;;
11319;SDS011;5715;48.234;14.320;2023-09-12T09:46:20;15.48;;;8.13;;
11319;SDS011;5715;48.234;14.320;2023-09-12T09:49:10;11.35;;;8.10;;
11319;SDS011;5715;48.234;14.320;2023-09-12T09:52:03;9.18;;;8.23;;
11319;SDS011;5715;48.234;14.320;2023-09-12T09:54:52;8.45;;;7.18;;
11319;SDS011;5715;48.234;14.320;2023-09-12T09:57:40;8.20;;;7.07;;
11319;SDS011;5715;48.234;14.320;2023-09-12T10:00:28;10.32;;;8.05;;
11319;SDS011;5715;48.234;14.320;2023-09-12T10:03:18;8.88;;;7.97;;
11319;SDS011;5715;48.234;14.320;2023-09-12T10:06:09;15.05;;;7.10;;
11319;SDS011;5715;48.234;14.320;2023-09-12T10:08:58;12.80;;;7.38;;
11319;SDS011;5715;48.234;14.320;2023-09-12T10:11:47;7.18;;;6.50;;
11319;SDS011;5715;48.234;14.320;2023-09-12T10:14:38;8.52;;;6.97;;
11319;SDS011;5715;48.234;14.320;2023-09-12T10:17:30;10.57;;;7.10;;
11319;SDS011;5715;48.234;14.320;2023-09-12T10:20:55;12.25;;;7.35;;
11319;SDS011;5715;48.234;14.320;2023-09-12T10:23:53;12.38;;;7.32;;
11319;SDS011;5715;48.234;14.320;2023-09-12T10:26:45;8.95;;;7.05;;
11319;SDS011;5715;48.234;14.320;2023-09-12T10:29:35;12.57;;;8.07;;
11319;SDS011;5715;48.234;14.320;2023-09-12T10:32:22;7.53;;;6.75;;
11319;SDS011;5715;48.234;14.320;2023-09-12T10:35:11;8.65;;;7.80;;
11319;SDS011;5715;48.234;14.320;2023-09-12T10:37:59;8.32;;;7.43;;
11319;SDS011;5715;48.234;14.320;2023-09-12T10:40:52;8.05;;;7.28;;
11319;SDS011;5715;48.234;14.320;2023-09-12T10:43:44;7.85;;;7.15;;
11319;SDS011;5715;48.234;14.320;2023-09-12T10:46:40;8.65;;;7.43;;
11319;SDS011;5715;48.234;14.320;2023-09-12T10:49:30;8.23;;;7.25;;
11319;SDS011;5715;48.234;14.320;2023-09-12T10:52:27;8.07;;;7.25;;
11319;SDS011;5715;48.234;14.320;2023-09-12T10:55:16;7.85;;;7.05;;
11319;SDS011;5715;48.234;14.320;2023-09-12T10:58:08;8.02;;;7.22;;
11319;SDS011;5715;48.234;14.320;2023-09-12T11:10:19;7.28;;;6.18;;
11319;SDS011;5715;48.234;14.320;2023-09-12T11:13:08;7.15;;;6.03;;
11319;SDS011;5715;48.234;14.320;2023-09-12T11:16:12;7.68;;;6.88;;
11319;SDS011;5715;48.234;14.320;2023-09-12T11:19:18;8.65;;;7.55;;
11319;SDS011;5715;48.234;14.320;2023-09-12T11:22:31;8.85;;;6.45;;
11319;SDS011;5715;48.234;14.320;2023-09-12T11:25:25;10.27;;;9.38;;
11319;SDS011;5715;48.234;14.320;2023-09-12T11:28:13;11.38;;;8.75;;
11319;SDS011;5715;48.234;14.320;2023-09-12T11:31:01;9.80;;;9.00;;
11319;SDS011;5715;48.234;14.320;2023-09-12T11:33:49;9.90;;;9.00;;
11319;SDS011;5715;48.234;14.320;2023-09-12T11:36:38;10.20;;;9.30;;
11319;SDS011;5715;48.234;14.320;2023-09-12T11:39:30;9.55;;;8.80;;
11319;SDS011;5715;48.234;14.320;2023-09-12T11:42:20;9.63;;;8.85;;
11319;SDS011;5715;48.234;14.320;2023-09-12T11:45:09;13.90;;;7.60;;
11319;SDS011;5715;48.234;14.320;2023-09-12T11:47:58;8.43;;;7.72;;
11319;SDS011;5715;48.234;14.320;2023-09-12T11:50:55;8.20;;;7.40;;
11319;SDS011;5715;48.234;14.320;2023-09-12T11:53:43;7.40;;;6.75;;
11319;SDS011;5715;48.234;14.320;2023-09-12T11:56:38;7.93;;;7.32;;
11319;SDS011;5715;48.234;14.320;2023-09-12T11:59:26;8.52;;;7.82;;
11319;SDS011;5715;48.234;14.320;2023-09-12T12:02:14;9.07;;;8.15;;
11319;SDS011;5715;48.234;14.320;2023-09-12T12:05:02;8.45;;;7.70;;
11319;SDS011;5715;48.234;14.320;2023-09-12T12:07:51;9.13;;;7.70;;
11319;SDS011;5715;48.234;14.320;2023-09-12T12:10:42;7.45;;;6.85;;
11319;SDS011;5715;48.234;14.320;2023-09-12T12:13:32;7.80;;;7.20;;
11319;SDS011;5715;48.234;14.320;2023-09-12T12:16:20;8.18;;;7.57;;
11319;SDS011;5715;48.234;14.320;2023-09-12T12:19:12;6.72;;;6.22;;
11319;SDS011;5715;48.234;14.320;2023-09-12T12:22:01;6.97;;;6.38;;
11319;SDS011;5715;48.234;14.320;2023-09-12T12:24:49;7.78;;;7.00;;
11319;SDS011;5715;48.234;14.320;2023-09-12T12:27:39;6.63;;;6.13;;
11319;SDS011;5715;48.234;14.320;2023-09-12T12:30:32;8.23;;;7.57;;
11319;SDS011;5715;48.234;14.320;2023-09-12T12:33:21;7.28;;;6.78;;
11319;SDS011;5715;48.234;14.320;2023-09-12T12:36:24;6.50;;;5.90;;
11319;SDS011;5715;48.234;14.320;2023-09-12T12:39:12;6.25;;;5.65;;
11319;SDS011;5715;48.234;14.320;2023-09-12T12:42:01;6.28;;;5.68;;
11319;SDS011;5715;48.234;14.320;2023-09-12T12:44:56;6.00;;;5.53;;
11319;SDS011;5715;48.234;14.320;2023-09-12T12:47:43;5.85;;;5.43;;
11319;SDS011;5715;48.234;14.320;2023-09-12T12:50:35;6.57;;;6.07;;
11319;SDS011;5715;48.234;14.320;2023-09-12T12:53:41;7.93;;;5.53;;
11319;SDS011;5715;48.234;14.320;2023-09-12T12:56:39;7.25;;;5.75;;
11319;SDS011;5715;48.234;14.320;2023-09-12T12:59:29;5.50;;;5.05;;
11319;SDS011;5715;48.234;14.320;2023-09-12T13:02:21;5.72;;;5.28;;
11319;SDS011;5715;48.234;14.320;2023-09-12T13:08:17;6.90;;;5.35;;
11319;SDS011;5715;48.234;14.320;2023-09-12T13:11:05;5.43;;;5.03;;
11319;SDS011;5715;48.234;14.320;2023-09-12T13:13:52;6.22;;;5.72;;
11319;SDS011;5715;48.234;14.320;2023-09-12T13:16:40;6.75;;;6.25;;
11319;SDS011;5715;48.234;14.320;2023-09-12T13:19:28;6.35;;;5.43;;
11319;SDS011;5715;48.234;14.320;2023-09-12T13:22:16;5.90;;;5.22;;
11319;SDS011;5715;48.234;14.320;2023-09-12T13:25:04;8.32;;;4.93;;
11319;SDS011;5715;48.234;14.320;2023-09-12T13:27:52;7.20;;;5.45;;
11319;SDS011;5715;48.234;14.320;2023-09-12T13:30:40;5.57;;;5.18;;
11319;SDS011;5715;48.234;14.320;2023-09-12T13:33:28;5.15;;;4.63;;
11319;SDS011;5715;48.234;14.320;2023-09-12T13:36:15;5.60;;;5.10;;
11319;SDS011;5715;48.234;14.320;2023-09-12T13:39:03;5.07;;;4.57;;
11319;SDS011;5715;48.234;14.320;2023-09-12T13:41:53;5.85;;;5.35;;
11319;SDS011;5715;48.234;14.320;2023-09-12T13:44:44;4.93;;;4.53;;
11319;SDS011;5715;48.234;14.320;2023-09-12T13:47:34;6.03;;;4.43;;
11319;SDS011;5715;48.234;14.320;2023-09-12T13:50:22;5.20;;;4.75;;
11319;SDS011;5715;48.234;14.320;2023-09-12T13:53:10;6.75;;;4.60;;
11319;SDS011;5715;48.234;14.320;2023-09-12T13:55:58;5.25;;;4.75;;
11319;SDS011;5715;48.234;14.320;2023-09-12T13:58:47;6.18;;;5.68;;
11319;SDS011;5715;48.234;14.320;2023-09-12T14:01:35;5.80;;;5.30;;
11319;SDS011;5715;48.234;14.320;2023-09-12T14:04:23;6.28;;;5.68;;
11319;SDS011;5715;48.234;14.320;2023-09-12T14:07:10;7.68;;;6.38;;
11319;SDS011;5715;48.234;14.320;2023-09-12T14:09:59;6.00;;;5.50;;
11319;SDS011;5715;48.234;14.320;2023-09-12T14:12:47;7.90;;;7.13;;
11319;SDS011;5715;48.234;14.320;2023-09-12T14:15:35;6.82;;;5.90;;
11319;SDS011;5715;48.234;14.320;2023-09-12T14:18:24;5.88;;;5.47;;
11319;SDS011;5715;48.234;14.320;2023-09-12T14:21:12;6.00;;;5.50;;
11319;SDS011;5715;48.234;14.320;2023-09-12T14:24:01;6.50;;;5.95;;
11319;SDS011;5715;48.234;14.320;2023-09-12T14:26:48;5.95;;;5.45;;
11319;SDS011;5715;48.234;14.320;2023-09-12T14:29:38;7.10;;;6.53;;
11319;SDS011;5715;48.234;14.320;2023-09-12T14:32:26;7.63;;;7.13;;
11319;SDS011;5715;48.234;14.320;2023-09-12T14:35:13;14.68;;;7.82;;
11319;SDS011;5715;48.234;14.320;2023-09-12T14:38:01;8.43;;;7.82;;
11319;SDS011;5715;48.234;14.320;2023-09-12T14:40:49;8.88;;;8.07;;
11319;SDS011;5715;48.234;14.320;2023-09-12T14:43:36;8.00;;;7.40;;
11319;SDS011;5715;48.234;14.320;2023-09-12T14:46:24;9.68;;;8.02;;
11319;SDS011;5715;48.234;14.320;2023-09-12T14:49:12;7.85;;;7.25;;
11319;SDS011;5715;48.234;14.320;2023-09-12T14:51:59;8.57;;;7.97;;
11319;SDS011;5715;48.234;14.320;2023-09-12T14:54:49;8.73;;;7.97;;
11319;SDS011;5715;48.234;14.320;2023-09-12T14:57:37;8.40;;;7.55;;
11319;SDS011;5715;48.234;14.320;2023-09-12T15:00:24;8.77;;;7.97;;
11319;SDS011;5715;48.234;14.320;2023-09-12T15:03:12;7.55;;;6.95;;
11319;SDS011;5715;48.234;14.320;2023-09-12T15:06:00;7.93;;;7.32;;
11319;SDS011;5715;48.234;14.320;2023-09-12T15:08:48;7.00;;;6.50;;
11319;SDS011;5715;48.234;14.320;2023-09-12T15:11:36;6.47;;;5.97;;
11319;SDS011;5715;48.234;14.320;2023-09-12T15:14:24;8.20;;;7.60;;
11319;SDS011;5715;48.234;14.320;2023-09-12T15:17:12;8.68;;;7.88;;
11319;SDS011;5715;48.234;14.320;2023-09-12T15:19:59;9.07;;;8.20;;
11319;SDS011;5715;48.234;14.320;2023-09-12T15:22:47;10.02;;;9.23;;
11319;SDS011;5715;48.234;14.320;2023-09-12T15:25:34;10.00;;;9.30;;
11319;SDS011;5715;48.234;14.320;2023-09-12T15:28:23;10.55;;;7.25;;
11319;SDS011;5715;48.234;14.320;2023-09-12T15:31:10;9.32;;;8.73;;
11319;SDS011;5715;48.234;14.320;2023-09-12T15:33:58;9.77;;;8.98;;
11319;SDS011;5715;48.234;14.320;2023-09-12T15:36:46;9.63;;;8.50;;
11319;SDS011;5715;48.234;14.320;2023-09-12T15:39:34;8.75;;;8.10;;
11319;SDS011;5715;48.234;14.320;2023-09-12T15:42:22;9.27;;;8.48;;
11319;SDS011;5715;48.234;14.320;2023-09-12T15:45:23;9.18;;;8.38;;
11319;SDS011;5715;48.234;14.320;2023-09-12T15:48:11;8.45;;;7.75;;
11319;SDS011;5715;48.234;14.320;2023-09-12T15:50:58;10.27;;;8.02;;
11319;SDS011;5715;48.234;14.320;2023-09-12T15:53:46;10.63;;;7.50;;
11319;SDS011;5715;48.234;14.320;2023-09-12T15:56:33;8.55;;;7.18;;
11319;SDS011;5715;48.234;14.320;2023-09-12T15:59:21;10.07;;;7.95;;
11319;SDS011;5715;48.234;14.320;2023-09-12T16:02:08;8.18;;;7.47;;
11319;SDS011;5715;48.234;14.320;2023-09-12T16:04:56;8.27;;;7.57;;
11319;SDS011;5715;48.234;14.320;2023-09-12T16:07:44;8.55;;;7.75;;
11319;SDS011;5715;48.234;14.320;2023-09-12T16:10:31;8.57;;;7.97;;
11319;SDS011;5715;48.234;14.320;2023-09-12T16:13:19;7.47;;;6.78;;
11319;SDS011;5715;48.234;14.320;2023-09-12T16:16:06;10.80;;;9.80;;
11319;SDS011;5715;48.234;14.320;2023-09-12T16:18:54;10.55;;;9.20;;
11319;SDS011;5715;48.234;14.320;2023-09-12T16:21:42;8.98;;;8.27;;
11319;SDS011;5715;48.234;14.320;2023-09-12T16:24:30;15.68;;;9.05;;
11319;SDS011;5715;48.234;14.320;2023-09-12T16:27:17;15.05;;;9.43;;
11319;SDS011;5715;48.234;14.320;2023-09-12T16:30:09;17.75;;;8.32;;
11319;SDS011;5715;48.234;14.320;2023-09-12T16:32:57;16.27;;;8.40;;
11319;SDS011;5715;48.234;14.320;2023-09-12T16:35:45;16.42;;;8.65;;
11319;SDS011;5715;48.234;14.320;2023-09-12T16:38:32;26.33;;;8.57;;
11319;SDS011;5715;48.234;14.320;2023-09-12T16:41:20;12.13;;;7.70;;
11319;SDS011;5715;48.234;14.320;2023-09-12T16:44:08;12.18;;;7.88;;
11319;SDS011;5715;48.234;14.320;2023-09-12T16:46:55;16.38;;;7.15;;
11319;SDS011;5715;48.234;14.320;2023-09-12T16:49:43;11.10;;;7.32;;
11319;SDS011;5715;48.234;14.320;2023-09-12T16:52:32;8.73;;;6.55;;
11319;SDS011;5715;48.234;14.320;2023-09-12T16:55:20;12.13;;;6.32;;
11319;SDS011;5715;48.234;14.320;2023-09-12T16:58:08;10.00;;;6.03;;
11319;SDS011;5715;48.234;14.320;2023-09-12T17:00:57;11.75;;;6.25;;
11319;SDS011;5715;48.234;14.320;2023-09-12T17:03:45;7.30;;;6.28;;
11319;SDS011;5715;48.234;14.320;2023-09-12T17:06:33;8.90;;;5.85;;
11319;SDS011;5715;48.234;14.320;2023-09-12T17:09:21;6.03;;;5.63;;